aviador You're here:

KSPA Decoded Metar

SPARTANBURG VOR in SC, USA
Report Time2017-04-25 08:15:00
UTC Time2017-04-25 08:30:43
Flight Rules mvfr MVFR
Wind350° at 04 kt
W.Decomp.*RWY 05: 2.3 kt HW 3.3 kt LCW
W.Rank350° ranks 16
Current wind is below 350° avg. (5.7)
Visibility6437 m
Phenomena:Drizzle
Clouds:Scattered 005 Hf
Broken 010 Hf
Overcast 016 Hf
Expected CloudBase > 400 ft AGL from Temp-Dew spread
Ceiling1,000 ft
Temp12°C (ISA -1)
Dew Point11°C (94% RH)
AAT10.9°C
QNH1005 hPa
Density Alt1,325 ft
Elevation994 ft
Report Wrong Elevation
Raw Report
METAR KSPA 250815Z AUTO 35004KT 4SM DZ SCT005 BKN010 OVC016 12/11 A2969
RMK AO2=

Extra information for KSPA:More info

Metar Taf Metar & Taf Last 4 Metars F.Rules Stats Wind Profile Meteogram Temp Stats Airport Information Weather charts Add Link Nearby VenuesMetar ALERT Operation Metar Decoded Social comments

AIRNAV info for KSPA